sensor_id;sensor_type;location;lat;lon;timestamp;P1;durP1;ratioP1;P2;durP2;ratioP2
14414;SDS011;7307;50.852;4.314;2022-08-25T00:00:47;4.05;;;3.20;;
14414;SDS011;7307;50.852;4.314;2022-08-25T00:03:14;4.78;;;3.47;;
14414;SDS011;7307;50.852;4.314;2022-08-25T00:05:40;5.10;;;3.20;;
14414;SDS011;7307;50.852;4.314;2022-08-25T00:08:06;4.03;;;3.30;;
14414;SDS011;7307;50.852;4.314;2022-08-25T00:10:37;4.53;;;3.45;;
14414;SDS011;7307;50.852;4.314;2022-08-25T00:13:03;4.10;;;3.35;;
14414;SDS011;7307;50.852;4.314;2022-08-25T00:15:30;4.93;;;3.47;;
14414;SDS011;7307;50.852;4.314;2022-08-25T00:17:57;3.90;;;3.53;;
14414;SDS011;7307;50.852;4.314;2022-08-25T00:20:24;4.05;;;3.20;;
14414;SDS011;7307;50.852;4.314;2022-08-25T00:22:50;4.65;;;3.00;;
14414;SDS011;7307;50.852;4.314;2022-08-25T00:25:17;6.03;;;3.17;;
14414;SDS011;7307;50.852;4.314;2022-08-25T00:27:43;3.83;;;3.42;;
14414;SDS011;7307;50.852;4.314;2022-08-25T00:30:09;3.97;;;2.85;;
14414;SDS011;7307;50.852;4.314;2022-08-25T00:32:36;4.72;;;3.60;;
14414;SDS011;7307;50.852;4.314;2022-08-25T00:35:02;4.55;;;3.78;;
14414;SDS011;7307;50.852;4.314;2022-08-25T00:37:28;6.38;;;3.70;;
14414;SDS011;7307;50.852;4.314;2022-08-25T00:39:54;4.43;;;3.67;;
14414;SDS011;7307;50.852;4.314;2022-08-25T00:42:21;3.90;;;3.33;;
14414;SDS011;7307;50.852;4.314;2022-08-25T00:44:48;5.70;;;3.45;;
14414;SDS011;7307;50.852;4.314;2022-08-25T00:47:14;7.28;;;3.40;;
14414;SDS011;7307;50.852;4.314;2022-08-25T00:49:44;6.50;;;3.70;;
14414;SDS011;7307;50.852;4.314;2022-08-25T00:52:15;4.30;;;3.63;;
14414;SDS011;7307;50.852;4.314;2022-08-25T00:54:49;4.55;;;3.38;;
14414;SDS011;7307;50.852;4.314;2022-08-25T00:57:25;5.28;;;3.50;;
14414;SDS011;7307;50.852;4.314;2022-08-25T01:00:05;4.03;;;3.63;;
14414;SDS011;7307;50.852;4.314;2022-08-25T01:02:37;4.05;;;3.72;;
14414;SDS011;7307;50.852;4.314;2022-08-25T01:05:03;5.43;;;4.20;;
14414;SDS011;7307;50.852;4.314;2022-08-25T01:07:29;6.68;;;3.97;;
14414;SDS011;7307;50.852;4.314;2022-08-25T01:09:58;4.60;;;3.90;;
14414;SDS011;7307;50.852;4.314;2022-08-25T01:12:24;4.07;;;3.67;;
14414;SDS011;7307;50.852;4.314;2022-08-25T01:14:51;6.20;;;3.97;;
14414;SDS011;7307;50.852;4.314;2022-08-25T01:17:17;5.20;;;3.97;;
14414;SDS011;7307;50.852;4.314;2022-08-25T01:19:42;4.35;;;3.80;;
14414;SDS011;7307;50.852;4.314;2022-08-25T01:22:08;4.72;;;4.32;;
14414;SDS011;7307;50.852;4.314;2022-08-25T01:24:37;4.00;;;3.60;;
14414;SDS011;7307;50.852;4.314;2022-08-25T01:27:14;4.18;;;3.65;;
14414;SDS011;7307;50.852;4.314;2022-08-25T01:29:40;6.40;;;4.15;;
14414;SDS011;7307;50.852;4.314;2022-08-25T01:32:08;8.18;;;4.35;;
14414;SDS011;7307;50.852;4.314;2022-08-25T01:34:38;4.80;;;3.90;;
14414;SDS011;7307;50.852;4.314;2022-08-25T01:37:05;5.22;;;4.00;;
14414;SDS011;7307;50.852;4.314;2022-08-25T01:39:32;5.18;;;4.20;;
14414;SDS011;7307;50.852;4.314;2022-08-25T01:44:36;4.30;;;3.90;;
14414;SDS011;7307;50.852;4.314;2022-08-25T01:47:05;4.82;;;4.28;;
14414;SDS011;7307;50.852;4.314;2022-08-25T01:49:32;6.78;;;4.00;;
14414;SDS011;7307;50.852;4.314;2022-08-25T01:52:11;4.85;;;3.90;;
14414;SDS011;7307;50.852;4.314;2022-08-25T01:54:40;5.50;;;4.13;;
14414;SDS011;7307;50.852;4.314;2022-08-25T01:57:06;4.80;;;4.15;;
14414;SDS011;7307;50.852;4.314;2022-08-25T01:59:31;6.35;;;4.25;;
14414;SDS011;7307;50.852;4.314;2022-08-25T02:01:57;8.90;;;4.47;;
14414;SDS011;7307;50.852;4.314;2022-08-25T02:04:22;6.43;;;4.80;;
14414;SDS011;7307;50.852;4.314;2022-08-25T02:06:48;7.50;;;4.43;;
14414;SDS011;7307;50.852;4.314;2022-08-25T02:09:15;6.38;;;4.60;;
14414;SDS011;7307;50.852;4.314;2022-08-25T02:11:43;6.53;;;4.30;;
14414;SDS011;7307;50.852;4.314;2022-08-25T02:14:11;4.78;;;4.30;;
14414;SDS011;7307;50.852;4.314;2022-08-25T02:16:39;5.45;;;4.00;;
14414;SDS011;7307;50.852;4.314;2022-08-25T02:19:07;4.82;;;4.00;;
14414;SDS011;7307;50.852;4.314;2022-08-25T02:21:34;4.78;;;4.28;;
14414;SDS011;7307;50.852;4.314;2022-08-25T02:24:01;5.78;;;4.30;;
14414;SDS011;7307;50.852;4.314;2022-08-25T02:26:28;6.13;;;5.07;;
14414;SDS011;7307;50.852;4.314;2022-08-25T02:28:54;4.78;;;4.20;;
14414;SDS011;7307;50.852;4.314;2022-08-25T02:31:20;4.93;;;4.53;;
14414;SDS011;7307;50.852;4.314;2022-08-25T02:33:48;5.72;;;4.68;;
14414;SDS011;7307;50.852;4.314;2022-08-25T02:36:14;5.05;;;4.55;;
14414;SDS011;7307;50.852;4.314;2022-08-25T02:38:40;6.30;;;4.22;;
14414;SDS011;7307;50.852;4.314;2022-08-25T02:41:07;5.57;;;4.53;;
14414;SDS011;7307;50.852;4.314;2022-08-25T02:43:38;4.68;;;4.20;;
14414;SDS011;7307;50.852;4.314;2022-08-25T02:46:04;5.95;;;4.88;;
14414;SDS011;7307;50.852;4.314;2022-08-25T02:48:30;4.93;;;4.43;;
14414;SDS011;7307;50.852;4.314;2022-08-25T02:50:57;7.20;;;4.63;;
14414;SDS011;7307;50.852;4.314;2022-08-25T02:53:25;7.15;;;4.28;;
14414;SDS011;7307;50.852;4.314;2022-08-25T02:55:51;5.80;;;4.18;;
14414;SDS011;7307;50.852;4.314;2022-08-25T02:58:16;6.82;;;4.60;;
14414;SDS011;7307;50.852;4.314;2022-08-25T03:00:42;8.45;;;4.53;;
14414;SDS011;7307;50.852;4.314;2022-08-25T03:03:10;4.85;;;4.40;;
14414;SDS011;7307;50.852;4.314;2022-08-25T03:05:35;5.65;;;4.40;;
14414;SDS011;7307;50.852;4.314;2022-08-25T03:08:02;7.60;;;4.72;;
14414;SDS011;7307;50.852;4.314;2022-08-25T03:10:28;7.22;;;4.53;;
14414;SDS011;7307;50.852;4.314;2022-08-25T03:12:54;5.38;;;4.10;;
14414;SDS011;7307;50.852;4.314;2022-08-25T03:15:20;8.88;;;4.88;;
14414;SDS011;7307;50.852;4.314;2022-08-25T03:17:46;6.68;;;4.47;;
14414;SDS011;7307;50.852;4.314;2022-08-25T03:20:15;5.00;;;4.50;;
14414;SDS011;7307;50.852;4.314;2022-08-25T03:22:41;6.32;;;4.43;;
14414;SDS011;7307;50.852;4.314;2022-08-25T03:25:07;5.82;;;4.40;;
14414;SDS011;7307;50.852;4.314;2022-08-25T03:28:03;4.72;;;4.32;;
14414;SDS011;7307;50.852;4.314;2022-08-25T03:30:29;5.45;;;4.93;;
14414;SDS011;7307;50.852;4.314;2022-08-25T03:32:54;7.22;;;4.90;;
14414;SDS011;7307;50.852;4.314;2022-08-25T03:35:20;8.50;;;4.57;;
14414;SDS011;7307;50.852;4.314;2022-08-25T03:37:46;5.28;;;4.65;;
14414;SDS011;7307;50.852;4.314;2022-08-25T03:40:13;5.03;;;4.53;;
14414;SDS011;7307;50.852;4.314;2022-08-25T03:42:42;6.55;;;4.53;;
14414;SDS011;7307;50.852;4.314;2022-08-25T03:45:09;6.47;;;4.50;;
14414;SDS011;7307;50.852;4.314;2022-08-25T03:47:36;9.23;;;4.47;;
14414;SDS011;7307;50.852;4.314;2022-08-25T03:50:03;5.85;;;4.40;;
14414;SDS011;7307;50.852;4.314;2022-08-25T03:52:30;10.20;;;5.32;;
14414;SDS011;7307;50.852;4.314;2022-08-25T03:54:55;8.68;;;5.07;;
14414;SDS011;7307;50.852;4.314;2022-08-25T03:57:21;5.72;;;5.15;;
14414;SDS011;7307;50.852;4.314;2022-08-25T03:59:50;8.77;;;4.50;;
14414;SDS011;7307;50.852;4.314;2022-08-25T04:02:16;8.55;;;4.70;;
14414;SDS011;7307;50.852;4.314;2022-08-25T04:04:42;6.40;;;3.90;;
14414;SDS011;7307;50.852;4.314;2022-08-25T04:07:08;4.85;;;3.85;;
14414;SDS011;7307;50.852;4.314;2022-08-25T04:09:40;6.95;;;4.22;;
14414;SDS011;7307;50.852;4.314;2022-08-25T04:12:06;4.93;;;4.28;;
14414;SDS011;7307;50.852;4.314;2022-08-25T04:14:31;4.88;;;3.95;;
14414;SDS011;7307;50.852;4.314;2022-08-25T04:16:57;4.90;;;4.10;;
14414;SDS011;7307;50.852;4.314;2022-08-25T04:19:23;7.43;;;4.15;;
14414;SDS011;7307;50.852;4.314;2022-08-25T04:21:48;7.32;;;4.22;;
14414;SDS011;7307;50.852;4.314;2022-08-25T04:24:15;7.97;;;4.55;;
14414;SDS011;7307;50.852;4.314;2022-08-25T04:26:43;10.68;;;4.75;;
14414;SDS011;7307;50.852;4.314;2022-08-25T04:29:11;7.47;;;4.93;;
14414;SDS011;7307;50.852;4.314;2022-08-25T04:31:39;9.13;;;4.78;;
14414;SDS011;7307;50.852;4.314;2022-08-25T04:34:07;6.40;;;4.10;;
14414;SDS011;7307;50.852;4.314;2022-08-25T04:36:33;5.25;;;4.10;;
14414;SDS011;7307;50.852;4.314;2022-08-25T04:38:58;9.55;;;4.68;;
14414;SDS011;7307;50.852;4.314;2022-08-25T04:41:24;7.28;;;4.32;;
14414;SDS011;7307;50.852;4.314;2022-08-25T04:43:54;6.18;;;3.95;;
14414;SDS011;7307;50.852;4.314;2022-08-25T04:46:22;6.00;;;3.97;;
14414;SDS011;7307;50.852;4.314;2022-08-25T04:48:50;4.93;;;3.80;;
14414;SDS011;7307;50.852;4.314;2022-08-25T04:51:18;5.88;;;3.95;;
14414;SDS011;7307;50.852;4.314;2022-08-25T04:53:47;6.32;;;3.78;;
14414;SDS011;7307;50.852;4.314;2022-08-25T04:56:14;7.35;;;4.00;;
14414;SDS011;7307;50.852;4.314;2022-08-25T04:58:40;5.45;;;3.72;;
14414;SDS011;7307;50.852;4.314;2022-08-25T05:01:10;6.55;;;3.75;;
14414;SDS011;7307;50.852;4.314;2022-08-25T05:03:41;8.15;;;4.47;;
14414;SDS011;7307;50.852;4.314;2022-08-25T05:06:07;9.80;;;4.75;;
14414;SDS011;7307;50.852;4.314;2022-08-25T05:08:33;9.75;;;4.57;;
14414;SDS011;7307;50.852;4.314;2022-08-25T05:11:05;9.05;;;4.13;;
14414;SDS011;7307;50.852;4.314;2022-08-25T05:13:33;6.50;;;3.90;;
14414;SDS011;7307;50.852;4.314;2022-08-25T05:15:59;8.70;;;4.30;;
14414;SDS011;7307;50.852;4.314;2022-08-25T05:18:25;9.35;;;4.35;;
14414;SDS011;7307;50.852;4.314;2022-08-25T05:20:53;9.18;;;4.53;;
14414;SDS011;7307;50.852;4.314;2022-08-25T05:23:20;9.07;;;4.22;;
14414;SDS011;7307;50.852;4.314;2022-08-25T05:25:48;7.88;;;3.95;;
14414;SDS011;7307;50.852;4.314;2022-08-25T05:28:16;10.48;;;4.45;;
14414;SDS011;7307;50.852;4.314;2022-08-25T05:30:42;9.43;;;4.15;;
14414;SDS011;7307;50.852;4.314;2022-08-25T05:33:09;6.38;;;4.13;;
14414;SDS011;7307;50.852;4.314;2022-08-25T05:35:35;7.18;;;3.90;;
14414;SDS011;7307;50.852;4.314;2022-08-25T05:38:02;8.25;;;3.70;;
14414;SDS011;7307;50.852;4.314;2022-08-25T05:40:28;21.73;;;6.97;;
14414;SDS011;7307;50.852;4.314;2022-08-25T05:42:54;12.85;;;5.03;;
14414;SDS011;7307;50.852;4.314;2022-08-25T05:45:20;5.93;;;3.45;;
14414;SDS011;7307;50.852;4.314;2022-08-25T05:47:46;6.30;;;3.22;;
14414;SDS011;7307;50.852;4.314;2022-08-25T05:50:16;7.85;;;3.50;;
14414;SDS011;7307;50.852;4.314;2022-08-25T05:52:42;8.48;;;3.85;;
14414;SDS011;7307;50.852;4.314;2022-08-25T05:55:09;7.68;;;3.33;;
14414;SDS011;7307;50.852;4.314;2022-08-25T05:57:34;8.73;;;3.80;;
14414;SDS011;7307;50.852;4.314;2022-08-25T06:00:00;7.25;;;3.33;;
14414;SDS011;7307;50.852;4.314;2022-08-25T06:02:28;7.68;;;3.90;;
14414;SDS011;7307;50.852;4.314;2022-08-25T06:05:12;5.78;;;3.70;;
14414;SDS011;7307;50.852;4.314;2022-08-25T06:07:40;8.50;;;3.80;;
14414;SDS011;7307;50.852;4.314;2022-08-25T06:10:06;5.22;;;3.22;;
14414;SDS011;7307;50.852;4.314;2022-08-25T06:12:35;8.77;;;3.83;;
14414;SDS011;7307;50.852;4.314;2022-08-25T06:15:02;6.18;;;3.75;;
14414;SDS011;7307;50.852;4.314;2022-08-25T06:17:29;6.30;;;3.17;;
14414;SDS011;7307;50.852;4.314;2022-08-25T06:19:54;6.40;;;3.80;;
14414;SDS011;7307;50.852;4.314;2022-08-25T06:22:20;5.85;;;2.90;;
14414;SDS011;7307;50.852;4.314;2022-08-25T06:24:46;4.18;;;3.28;;
14414;SDS011;7307;50.852;4.314;2022-08-25T06:27:12;8.07;;;3.58;;
14414;SDS011;7307;50.852;4.314;2022-08-25T06:29:38;5.75;;;2.85;;
14414;SDS011;7307;50.852;4.314;2022-08-25T06:32:04;6.03;;;3.33;;
14414;SDS011;7307;50.852;4.314;2022-08-25T06:34:29;5.82;;;3.30;;
14414;SDS011;7307;50.852;4.314;2022-08-25T06:36:55;5.18;;;3.20;;
14414;SDS011;7307;50.852;4.314;2022-08-25T06:39:21;4.75;;;3.33;;
14414;SDS011;7307;50.852;4.314;2022-08-25T06:41:50;3.63;;;3.13;;
14414;SDS011;7307;50.852;4.314;2022-08-25T06:44:19;5.13;;;3.22;;
14414;SDS011;7307;50.852;4.314;2022-08-25T06:46:45;5.22;;;3.45;;
14414;SDS011;7307;50.852;4.314;2022-08-25T06:49:11;5.55;;;3.30;;
14414;SDS011;7307;50.852;4.314;2022-08-25T06:51:37;4.47;;;2.90;;
14414;SDS011;7307;50.852;4.314;2022-08-25T06:54:03;7.25;;;3.75;;
14414;SDS011;7307;50.852;4.314;2022-08-25T06:56:34;5.35;;;3.60;;
14414;SDS011;7307;50.852;4.314;2022-08-25T06:59:01;5.00;;;3.00;;
14414;SDS011;7307;50.852;4.314;2022-08-25T07:01:30;5.22;;;3.20;;
14414;SDS011;7307;50.852;4.314;2022-08-25T07:03:57;4.95;;;3.42;;
14414;SDS011;7307;50.852;4.314;2022-08-25T07:06:29;4.57;;;3.10;;
14414;SDS011;7307;50.852;4.314;2022-08-25T07:08:57;5.18;;;3.40;;
14414;SDS011;7307;50.852;4.314;2022-08-25T07:11:23;4.80;;;2.95;;
14414;SDS011;7307;50.852;4.314;2022-08-25T07:13:49;6.50;;;3.15;;
14414;SDS011;7307;50.852;4.314;2022-08-25T07:16:16;5.63;;;3.05;;
14414;SDS011;7307;50.852;4.314;2022-08-25T07:18:44;5.55;;;3.13;;
14414;SDS011;7307;50.852;4.314;2022-08-25T07:21:11;4.45;;;3.20;;
14414;SDS011;7307;50.852;4.314;2022-08-25T07:23:39;4.30;;;3.20;;
14414;SDS011;7307;50.852;4.314;2022-08-25T07:26:16;5.53;;;3.22;;
14414;SDS011;7307;50.852;4.314;2022-08-25T07:28:44;5.72;;;3.00;;
14414;SDS011;7307;50.852;4.314;2022-08-25T07:31:10;5.28;;;2.80;;
14414;SDS011;7307;50.852;4.314;2022-08-25T07:33:37;5.18;;;3.00;;
14414;SDS011;7307;50.852;4.314;2022-08-25T07:36:02;3.95;;;3.00;;
14414;SDS011;7307;50.852;4.314;2022-08-25T07:38:28;4.60;;;2.90;;
14414;SDS011;7307;50.852;4.314;2022-08-25T07:41:00;3.88;;;2.95;;
14414;SDS011;7307;50.852;4.314;2022-08-25T07:43:27;5.70;;;3.15;;
14414;SDS011;7307;50.852;4.314;2022-08-25T07:45:53;5.47;;;3.25;;
14414;SDS011;7307;50.852;4.314;2022-08-25T07:48:18;2.88;;;2.40;;
14414;SDS011;7307;50.852;4.314;2022-08-25T07:50:53;4.38;;;3.20;;
14414;SDS011;7307;50.852;4.314;2022-08-25T07:53:19;4.75;;;2.80;;
14414;SDS011;7307;50.852;4.314;2022-08-25T07:55:44;4.18;;;3.20;;
14414;SDS011;7307;50.852;4.314;2022-08-25T07:58:10;3.53;;;3.22;;
14414;SDS011;7307;50.852;4.314;2022-08-25T08:00:37;4.25;;;2.88;;
14414;SDS011;7307;50.852;4.314;2022-08-25T08:03:04;3.75;;;2.97;;
14414;SDS011;7307;50.852;4.314;2022-08-25T08:05:31;5.15;;;3.10;;
14414;SDS011;7307;50.852;4.314;2022-08-25T08:07:57;4.97;;;3.05;;
14414;SDS011;7307;50.852;4.314;2022-08-25T08:10:24;4.22;;;2.90;;
14414;SDS011;7307;50.852;4.314;2022-08-25T08:12:50;5.03;;;2.63;;
14414;SDS011;7307;50.852;4.314;2022-08-25T08:15:16;4.18;;;3.00;;
14414;SDS011;7307;50.852;4.314;2022-08-25T08:17:43;3.45;;;2.70;;
14414;SDS011;7307;50.852;4.314;2022-08-25T08:20:09;3.78;;;3.00;;
14414;SDS011;7307;50.852;4.314;2022-08-25T08:22:36;4.78;;;2.90;;
14414;SDS011;7307;50.852;4.314;2022-08-25T08:25:04;3.28;;;2.72;;
14414;SDS011;7307;50.852;4.314;2022-08-25T08:27:30;5.55;;;2.97;;
14414;SDS011;7307;50.852;4.314;2022-08-25T08:29:55;4.57;;;2.67;;
14414;SDS011;7307;50.852;4.314;2022-08-25T08:32:21;3.28;;;2.55;;
14414;SDS011;7307;50.852;4.314;2022-08-25T08:34:47;3.38;;;2.75;;
14414;SDS011;7307;50.852;4.314;2022-08-25T08:37:15;4.18;;;2.38;;
14414;SDS011;7307;50.852;4.314;2022-08-25T08:39:43;5.22;;;2.70;;
14414;SDS011;7307;50.852;4.314;2022-08-25T08:45:15;5.68;;;2.85;;
14414;SDS011;7307;50.852;4.314;2022-08-25T08:48:13;4.50;;;2.70;;
14414;SDS011;7307;50.852;4.314;2022-08-25T08:53:55;3.83;;;2.80;;
14414;SDS011;7307;50.852;4.314;2022-08-25T08:56:40;3.50;;;2.60;;
14414;SDS011;7307;50.852;4.314;2022-08-25T08:59:09;4.18;;;3.05;;
14414;SDS011;7307;50.852;4.314;2022-08-25T09:01:49;4.15;;;2.78;;
14414;SDS011;7307;50.852;4.314;2022-08-25T09:07:45;4.07;;;2.70;;
14414;SDS011;7307;50.852;4.314;2022-08-25T09:10:15;3.88;;;2.50;;
14414;SDS011;7307;50.852;4.314;2022-08-25T09:13:05;3.38;;;2.58;;
14414;SDS011;7307;50.852;4.314;2022-08-25T09:18:53;3.90;;;2.95;;
14414;SDS011;7307;50.852;4.314;2022-08-25T09:21:42;3.13;;;2.45;;
14414;SDS011;7307;50.852;4.314;2022-08-25T09:30:05;2.75;;;2.53;;
14414;SDS011;7307;50.852;4.314;2022-08-25T09:32:39;3.65;;;2.80;;
14414;SDS011;7307;50.852;4.314;2022-08-25T09:35:09;3.58;;;2.70;;
14414;SDS011;7307;50.852;4.314;2022-08-25T09:37:54;5.40;;;3.00;;
14414;SDS011;7307;50.852;4.314;2022-08-25T09:40:20;3.17;;;2.42;;
14414;SDS011;7307;50.852;4.314;2022-08-25T09:42:49;3.30;;;2.60;;
14414;SDS011;7307;50.852;4.314;2022-08-25T09:45:36;2.92;;;2.63;;
14414;SDS011;7307;50.852;4.314;2022-08-25T09:49:10;3.08;;;2.50;;
14414;SDS011;7307;50.852;4.314;2022-08-25T09:51:16;2.60;;;2.30;;
14414;SDS011;7307;50.852;4.314;2022-08-25T09:53:59;3.65;;;2.40;;
14414;SDS011;7307;50.852;4.314;2022-08-25T09:56:49;2.83;;;2.33;;
14414;SDS011;7307;50.852;4.314;2022-08-25T09:59:23;3.30;;;2.10;;
14414;SDS011;7307;50.852;4.314;2022-08-25T10:01:52;3.70;;;2.50;;
14414;SDS011;7307;50.852;4.314;2022-08-25T10:04:29;4.68;;;2.60;;
14414;SDS011;7307;50.852;4.314;2022-08-25T10:06:57;2.75;;;2.40;;
14414;SDS011;7307;50.852;4.314;2022-08-25T10:09:26;3.00;;;2.50;;
14414;SDS011;7307;50.852;4.314;2022-08-25T10:11:58;2.35;;;2.15;;
14414;SDS011;7307;50.852;4.314;2022-08-25T10:14:32;2.78;;;2.45;;
14414;SDS011;7307;50.852;4.314;2022-08-25T10:17:13;2.97;;;2.13;;
14414;SDS011;7307;50.852;4.314;2022-08-25T10:19:41;3.45;;;2.45;;
14414;SDS011;7307;50.852;4.314;2022-08-25T10:22:11;3.60;;;2.55;;
14414;SDS011;7307;50.852;4.314;2022-08-25T10:24:50;4.75;;;2.63;;
14414;SDS011;7307;50.852;4.314;2022-08-25T10:35:30;3.20;;;2.25;;
14414;SDS011;7307;50.852;4.314;2022-08-25T10:43:35;3.28;;;2.15;;
14414;SDS011;7307;50.852;4.314;2022-08-25T10:49:03;2.28;;;2.08;;
14414;SDS011;7307;50.852;4.314;2022-08-25T10:57:15;2.45;;;2.20;;
14414;SDS011;7307;50.852;4.314;2022-08-25T11:03:00;2.70;;;2.00;;
14414;SDS011;7307;50.852;4.314;2022-08-25T11:05:54;3.58;;;2.30;;
14414;SDS011;7307;50.852;4.314;2022-08-25T11:08:38;3.47;;;2.50;;
14414;SDS011;7307;50.852;4.314;2022-08-25T11:11:12;2.22;;;2.05;;
14414;SDS011;7307;50.852;4.314;2022-08-25T11:19:19;2.15;;;1.95;;
14414;SDS011;7307;50.852;4.314;2022-08-25T11:22:11;3.17;;;2.10;;
14414;SDS011;7307;50.852;4.314;2022-08-25T11:27:20;3.38;;;2.17;;
14414;SDS011;7307;50.852;4.314;2022-08-25T11:29:52;2.78;;;1.90;;
14414;SDS011;7307;50.852;4.314;2022-08-25T11:32:23;3.40;;;2.47;;
14414;SDS011;7307;50.852;4.314;2022-08-25T11:34:50;4.63;;;2.33;;
14414;SDS011;7307;50.852;4.314;2022-08-25T11:37:22;2.70;;;2.25;;
14414;SDS011;7307;50.852;4.314;2022-08-25T11:39:57;4.82;;;2.20;;
14414;SDS011;7307;50.852;4.314;2022-08-25T11:54:04;4.13;;;2.40;;
14414;SDS011;7307;50.852;4.314;2022-08-25T11:57:09;3.20;;;2.00;;
14414;SDS011;7307;50.852;4.314;2022-08-25T12:05:08;5.65;;;2.40;;
14414;SDS011;7307;50.852;4.314;2022-08-25T12:26:43;3.83;;;2.28;;
14414;SDS011;7307;50.852;4.314;2022-08-25T12:37:19;3.33;;;2.22;;
14414;SDS011;7307;50.852;4.314;2022-08-25T12:42:20;2.63;;;2.17;;
14414;SDS011;7307;50.852;4.314;2022-08-25T12:45:13;3.17;;;2.10;;
14414;SDS011;7307;50.852;4.314;2022-08-25T12:47:50;3.15;;;2.10;;
14414;SDS011;7307;50.852;4.314;2022-08-25T12:50:26;2.20;;;2.00;;
14414;SDS011;7307;50.852;4.314;2022-08-25T12:53:22;3.00;;;2.20;;
14414;SDS011;7307;50.852;4.314;2022-08-25T12:56:02;3.72;;;2.20;;
14414;SDS011;7307;50.852;4.314;2022-08-25T12:58:46;3.03;;;2.20;;
14414;SDS011;7307;50.852;4.314;2022-08-25T13:14:43;2.45;;;2.25;;
14414;SDS011;7307;50.852;4.314;2022-08-25T13:17:10;2.42;;;2.10;;
14414;SDS011;7307;50.852;4.314;2022-08-25T13:19:36;2.25;;;1.80;;
14414;SDS011;7307;50.852;4.314;2022-08-25T13:22:10;2.42;;;1.95;;
14414;SDS011;7307;50.852;4.314;2022-08-25T13:24:41;3.58;;;2.30;;
14414;SDS011;7307;50.852;4.314;2022-08-25T13:27:09;6.90;;;2.95;;
14414;SDS011;7307;50.852;4.314;2022-08-25T13:29:50;4.13;;;2.17;;
14414;SDS011;7307;50.852;4.314;2022-08-25T13:32:24;5.05;;;2.58;;
14414;SDS011;7307;50.852;4.314;2022-08-25T13:35:13;6.90;;;2.50;;
14414;SDS011;7307;50.852;4.314;2022-08-25T13:37:41;5.53;;;2.85;;
14414;SDS011;7307;50.852;4.314;2022-08-25T13:42:33;3.15;;;2.38;;
14414;SDS011;7307;50.852;4.314;2022-08-25T13:45:00;3.85;;;2.35;;
14414;SDS011;7307;50.852;4.314;2022-08-25T13:47:36;4.20;;;2.28;;
14414;SDS011;7307;50.852;4.314;2022-08-25T13:50:20;5.88;;;2.15;;
14414;SDS011;7307;50.852;4.314;2022-08-25T13:55:47;4.53;;;2.60;;
14414;SDS011;7307;50.852;4.314;2022-08-25T13:58:22;5.13;;;2.47;;
14414;SDS011;7307;50.852;4.314;2022-08-25T14:01:02;3.75;;;2.05;;
14414;SDS011;7307;50.852;4.314;2022-08-25T14:03:42;4.25;;;2.33;;
14414;SDS011;7307;50.852;4.314;2022-08-25T14:08:43;3.92;;;2.40;;
14414;SDS011;7307;50.852;4.314;2022-08-25T14:14:01;3.00;;;2.28;;
14414;SDS011;7307;50.852;4.314;2022-08-25T14:16:30;4.72;;;2.40;;
14414;SDS011;7307;50.852;4.314;2022-08-25T14:18:59;2.92;;;2.30;;
14414;SDS011;7307;50.852;4.314;2022-08-25T14:21:28;4.32;;;2.30;;
14414;SDS011;7307;50.852;4.314;2022-08-25T14:23:56;2.42;;;2.22;;
14414;SDS011;7307;50.852;4.314;2022-08-25T14:26:23;2.13;;;1.95;;
14414;SDS011;7307;50.852;4.314;2022-08-25T14:28:49;4.00;;;2.58;;
14414;SDS011;7307;50.852;4.314;2022-08-25T14:31:25;2.65;;;2.40;;
14414;SDS011;7307;50.852;4.314;2022-08-25T14:33:57;2.45;;;2.20;;
14414;SDS011;7307;50.852;4.314;2022-08-25T14:36:29;4.40;;;2.25;;
14414;SDS011;7307;50.852;4.314;2022-08-25T14:38:57;2.75;;;2.25;;
14414;SDS011;7307;50.852;4.314;2022-08-25T14:41:23;3.47;;;2.13;;
14414;SDS011;7307;50.852;4.314;2022-08-25T14:43:50;3.63;;;2.17;;
14414;SDS011;7307;50.852;4.314;2022-08-25T14:46:17;2.63;;;2.42;;
14414;SDS011;7307;50.852;4.314;2022-08-25T14:48:47;3.72;;;2.30;;
14414;SDS011;7307;50.852;4.314;2022-08-25T14:51:18;3.90;;;2.65;;
14414;SDS011;7307;50.852;4.314;2022-08-25T14:53:46;3.17;;;2.67;;
14414;SDS011;7307;50.852;4.314;2022-08-25T14:56:12;4.25;;;2.25;;
14414;SDS011;7307;50.852;4.314;2022-08-25T14:58:38;4.55;;;2.92;;
14414;SDS011;7307;50.852;4.314;2022-08-25T15:01:04;2.97;;;2.47;;
14414;SDS011;7307;50.852;4.314;2022-08-25T15:03:40;3.58;;;2.25;;
14414;SDS011;7307;50.852;4.314;2022-08-25T15:06:09;3.97;;;2.65;;
14414;SDS011;7307;50.852;4.314;2022-08-25T15:08:36;6.03;;;2.58;;
14414;SDS011;7307;50.852;4.314;2022-08-25T15:11:23;3.70;;;2.80;;
14414;SDS011;7307;50.852;4.314;2022-08-25T15:13:49;2.70;;;2.50;;
14414;SDS011;7307;50.852;4.314;2022-08-25T15:19:07;4.10;;;2.47;;
14414;SDS011;7307;50.852;4.314;2022-08-25T15:21:35;2.53;;;2.33;;
14414;SDS011;7307;50.852;4.314;2022-08-25T15:24:02;3.30;;;2.70;;
14414;SDS011;7307;50.852;4.314;2022-08-25T15:26:34;3.90;;;2.70;;
14414;SDS011;7307;50.852;4.314;2022-08-25T15:29:12;2.63;;;2.42;;
14414;SDS011;7307;50.852;4.314;2022-08-25T15:31:38;3.10;;;2.80;;
14414;SDS011;7307;50.852;4.314;2022-08-25T15:34:04;4.05;;;2.78;;
14414;SDS011;7307;50.852;4.314;2022-08-25T15:36:31;4.07;;;2.97;;
14414;SDS011;7307;50.852;4.314;2022-08-25T15:38:57;3.45;;;2.50;;
14414;SDS011;7307;50.852;4.314;2022-08-25T15:41:22;3.03;;;2.58;;
14414;SDS011;7307;50.852;4.314;2022-08-25T15:43:48;3.58;;;2.80;;
14414;SDS011;7307;50.852;4.314;2022-08-25T15:46:15;3.08;;;2.78;;
14414;SDS011;7307;50.852;4.314;2022-08-25T15:48:44;2.50;;;2.28;;
14414;SDS011;7307;50.852;4.314;2022-08-25T15:51:10;3.47;;;2.80;;
14414;SDS011;7307;50.852;4.314;2022-08-25T15:53:36;3.25;;;2.95;;
14414;SDS011;7307;50.852;4.314;2022-08-25T15:56:03;3.13;;;2.72;;
14414;SDS011;7307;50.852;4.314;2022-08-25T15:58:29;2.90;;;2.60;;
14414;SDS011;7307;50.852;4.314;2022-08-25T16:00:55;3.60;;;2.72;;
14414;SDS011;7307;50.852;4.314;2022-08-25T16:03:21;3.22;;;3.00;;
14414;SDS011;7307;50.852;4.314;2022-08-25T16:05:47;4.22;;;2.85;;
14414;SDS011;7307;50.852;4.314;2022-08-25T16:08:15;2.95;;;2.67;;
14414;SDS011;7307;50.852;4.314;2022-08-25T16:10:41;3.10;;;2.80;;
14414;SDS011;7307;50.852;4.314;2022-08-25T16:13:08;3.30;;;3.00;;
14414;SDS011;7307;50.852;4.314;2022-08-25T16:15:35;4.80;;;3.45;;
14414;SDS011;7307;50.852;4.314;2022-08-25T16:18:02;5.55;;;3.25;;
14414;SDS011;7307;50.852;4.314;2022-08-25T16:20:30;3.25;;;2.58;;
14414;SDS011;7307;50.852;4.314;2022-08-25T16:22:56;3.72;;;2.80;;
14414;SDS011;7307;50.852;4.314;2022-08-25T16:25:24;3.35;;;3.05;;
14414;SDS011;7307;50.852;4.314;2022-08-25T16:27:50;3.55;;;3.15;;
14414;SDS011;7307;50.852;4.314;2022-08-25T16:30:16;5.63;;;3.20;;
14414;SDS011;7307;50.852;4.314;2022-08-25T16:32:42;3.60;;;3.30;;
14414;SDS011;7307;50.852;4.314;2022-08-25T16:35:08;4.03;;;3.10;;
14414;SDS011;7307;50.852;4.314;2022-08-25T16:37:34;3.25;;;2.95;;
14414;SDS011;7307;50.852;4.314;2022-08-25T16:40:00;4.13;;;3.47;;
14414;SDS011;7307;50.852;4.314;2022-08-25T16:42:26;3.97;;;3.28;;
14414;SDS011;7307;50.852;4.314;2022-08-25T16:44:52;5.18;;;3.35;;
14414;SDS011;7307;50.852;4.314;2022-08-25T16:47:18;4.95;;;3.13;;
14414;SDS011;7307;50.852;4.314;2022-08-25T16:49:44;3.25;;;2.95;;
14414;SDS011;7307;50.852;4.314;2022-08-25T16:52:11;3.30;;;3.00;;
14414;SDS011;7307;50.852;4.314;2022-08-25T16:54:56;3.28;;;2.97;;
14414;SDS011;7307;50.852;4.314;2022-08-25T16:57:37;4.75;;;3.17;;
14414;SDS011;7307;50.852;4.314;2022-08-25T17:00:04;5.07;;;3.63;;
14414;SDS011;7307;50.852;4.314;2022-08-25T17:02:34;4.78;;;4.00;;
14414;SDS011;7307;50.852;4.314;2022-08-25T17:05:08;4.78;;;4.28;;
14414;SDS011;7307;50.852;4.314;2022-08-25T17:07:35;6.47;;;4.82;;
14414;SDS011;7307;50.852;4.314;2022-08-25T17:10:03;6.45;;;4.20;;
14414;SDS011;7307;50.852;4.314;2022-08-25T17:12:29;6.57;;;4.70;;
14414;SDS011;7307;50.852;4.314;2022-08-25T17:14:55;6.25;;;4.70;;
14414;SDS011;7307;50.852;4.314;2022-08-25T17:17:20;5.60;;;4.57;;
14414;SDS011;7307;50.852;4.314;2022-08-25T17:19:46;7.00;;;5.13;;
14414;SDS011;7307;50.852;4.314;2022-08-25T17:22:12;5.90;;;4.53;;